Terminal Aerodrome Forecast
Issued by NWS Grand Forks, ND

Home | Current Version | Previous Version | Graphics & Text | Print | Product List | Glossary On
Versions: 1 2 3 4 5 6 7 8 9 10 11 12 13
612
FTUS43 KFGF 251123
TAFFAR
TAF
KFAR 251123Z 2512/2612 22005KT P6SM BKN050
     FM251800 28008KT P6SM BKN050
     FM252100 31008KT P6SM BKN035
     FM260700 36007KT P6SM -SN BKN025=

USA.gov is the U.S. government's official web portal to all federal, state and local government web resources and services.